Time;durP1;ratioP1;P1;durP2;ratioP2;P2;SDS_P1;SDS_P2;PMS_P1;PMS_P2;Temp;Humidity;BMP_temperature;BMP_pressure;BME280_temperature;BME280_humidity;BME280_pressure;Samples;Min_cycle;Max_cycle;Signal;HPM_P1;HPM_P2
2021/12/20 00:01:24;;;;;;;2.70;2.00;;;20.30;23.50;20.80;94450.00;;;;10326968;28;47221;-63
2021/12/20 00:06:24;;;;;;;2.90;2.00;;;20.40;23.60;20.80;94467.00;;;;10316246;28;45115;-63
2021/12/20 00:11:25;;;;;;;2.78;2.10;;;20.30;23.50;20.80;94475.00;;;;10315518;28;45594;-63
2021/12/20 00:16:26;;;;;;;2.97;2.25;;;20.30;23.50;20.80;94477.00;;;;10277118;28;46566;-63
2021/12/20 00:21:26;;;;;;;2.78;2.10;;;20.30;23.60;20.80;94465.00;;;;10277379;28;45104;-63
2021/12/20 00:26:27;;;;;;;3.17;2.20;;;20.30;23.60;20.80;94472.00;;;;10303523;28;47092;-63
2021/12/20 00:31:28;;;;;;;3.58;1.98;;;20.30;23.60;20.70;94467.00;;;;10317345;28;45395;-63
2021/12/20 00:36:30;;;;;;;2.80;2.00;;;20.30;23.60;20.70;94480.00;;;;10316394;28;47169;-63
2021/12/20 00:41:30;;;;;;;2.63;2.00;;;20.30;23.60;20.70;94476.00;;;;10318208;28;45369;-63
2021/12/20 00:46:31;;;;;;;2.38;1.70;;;20.30;23.50;20.70;94474.00;;;;10316224;28;46833;-64
2021/12/20 00:51:32;;;;;;;2.25;1.52;;;20.30;23.60;20.70;94480.00;;;;10317723;28;46121;-62
2021/12/20 00:56:32;;;;;;;1.77;1.55;;;20.30;23.50;20.70;94475.00;;;;10315887;28;45601;-63
2021/12/20 01:01:33;;;;;;;1.75;1.50;;;20.20;23.60;20.70;94464.00;;;;10316409;28;45500;-63
2021/12/20 01:06:34;;;;;;;1.67;1.40;;;20.30;23.60;20.70;94466.00;;;;10315922;28;45639;-63
2021/12/20 01:11:39;;;;;;;1.73;1.40;;;20.20;23.50;20.70;94470.00;;;;10311135;28;45193;-63
2021/12/20 01:16:39;;;;;;;1.92;1.50;;;20.30;23.60;20.70;94467.00;;;;10273903;28;45605;-63
2021/12/20 01:21:40;;;;;;;2.10;1.67;;;20.30;23.50;20.70;94459.00;;;;10275416;28;45276;-63
2021/12/20 01:26:41;;;;;;;1.67;1.50;;;20.30;23.60;20.70;94464.00;;;;10305488;28;45462;-63
2021/12/20 01:31:41;;;;;;;1.52;1.30;;;20.30;23.60;20.70;94451.00;;;;10316713;28;46500;-63
2021/12/20 01:36:42;;;;;;;1.70;1.40;;;20.20;23.50;20.70;94459.00;;;;10316111;28;45181;-63
2021/12/20 01:41:44;;;;;;;2.00;1.40;;;20.20;23.50;20.70;94465.00;;;;10314856;28;45394;-63
2021/12/20 01:46:45;;;;;;;1.90;1.45;;;20.20;23.60;20.70;94444.00;;;;10314328;28;45967;-63
2021/12/20 01:56:59;;;;;;;1.50;1.40;;;20.20;23.60;20.70;94454.00;;;;10314246;28;45924;-63
2021/12/20 02:02:00;;;;;;;2.05;1.35;;;20.20;23.50;20.70;94439.00;;;;10324673;28;47891;-63
2021/12/20 02:07:01;;;;;;;1.65;1.48;;;20.20;23.50;20.70;94443.00;;;;10312264;28;45473;-63
2021/12/20 02:12:02;;;;;;;1.67;1.40;;;20.20;23.50;20.70;94447.00;;;;10313926;28;46924;-63
2021/12/20 02:17:03;;;;;;;2.10;1.55;;;20.20;23.50;20.60;94456.00;;;;10313235;28;45144;-62
2021/12/20 02:22:03;;;;;;;2.05;1.48;;;20.20;23.60;20.60;94458.00;;;;10316496;28;45385;-61
2021/12/20 02:27:04;;;;;;;1.80;1.40;;;20.20;23.50;20.60;94437.00;;;;10313146;28;48380;-60
2021/12/20 02:37:28;;;;;;;2.00;1.40;;;20.20;23.60;20.60;94413.00;;;;10315314;28;45711;-59
2021/12/20 02:42:36;;;;;;;2.47;1.77;;;20.10;23.60;20.60;94421.00;;;;10315327;28;45302;-60
2021/12/20 02:47:40;;;;;;;1.90;1.45;;;20.10;23.60;20.60;94407.00;;;;10315030;28;46037;-60
2021/12/20 02:52:41;;;;;;;2.20;1.50;;;20.20;23.70;20.60;94421.00;;;;10314882;28;46510;-60
2021/12/20 02:57:42;;;;;;;2.08;1.58;;;20.20;23.70;20.60;94407.00;;;;10313362;28;45297;-62
2021/12/20 03:02:42;;;;;;;1.70;1.33;;;20.20;23.60;20.60;94404.00;;;;10313806;28;45118;-59
2021/12/20 03:07:50;;;;;;;1.67;1.40;;;20.20;23.60;20.60;94406.00;;;;10314232;28;46344;-58
2021/12/20 03:12:51;;;;;;;1.85;1.45;;;20.20;23.70;20.60;94405.00;;;;10312768;28;47222;-60
2021/12/20 03:17:54;;;;;;;1.85;1.38;;;20.20;23.70;20.60;94390.00;;;;10312503;28;45175;-58
2021/12/20 03:22:55;;;;;;;2.15;1.70;;;20.20;23.70;20.60;94397.00;;;;10312892;28;45437;-59
2021/12/20 03:27:56;;;;;;;2.10;1.50;;;20.20;23.70;20.60;94389.00;;;;10312600;28;45445;-59
2021/12/20 03:32:57;;;;;;;2.03;1.60;;;20.20;23.70;20.60;94379.00;;;;10313998;28;45099;-59
2021/12/20 03:37:57;;;;;;;1.58;1.42;;;20.20;23.70;20.60;94376.00;;;;10313068;28;45391;-61
2021/12/20 03:42:59;;;;;;;1.83;1.45;;;20.20;23.70;20.60;94377.00;;;;10312517;28;45319;-59
2021/12/20 03:48:00;;;;;;;2.30;1.58;;;20.20;23.80;20.60;94379.00;;;;10311903;28;45372;-59
2021/12/20 03:53:00;;;;;;;2.17;1.45;;;20.20;23.80;20.60;94382.00;;;;10313232;28;45259;-59
2021/12/20 03:58:01;;;;;;;1.65;1.35;;;20.20;23.80;20.60;94382.00;;;;10312890;28;45178;-58
2021/12/20 04:03:08;;;;;;;2.13;1.50;;;20.20;23.80;20.60;94382.00;;;;10313123;28;45341;-59
2021/12/20 04:08:09;;;;;;;2.05;1.52;;;20.20;23.80;20.60;94374.00;;;;10311528;28;46098;-59
2021/12/20 04:13:10;;;;;;;2.47;1.55;;;20.20;23.80;20.60;94388.00;;;;10293922;28;45457;-59
2021/12/20 04:18:10;;;;;;;1.90;1.48;;;20.20;23.80;20.60;94372.00;;;;10271300;28;45419;-59
2021/12/20 04:23:12;;;;;;;2.25;1.60;;;20.20;23.90;20.60;94378.00;;;;10272701;28;45545;-60
2021/12/20 04:28:12;;;;;;;1.63;1.40;;;20.20;23.80;20.60;94372.00;;;;10310894;28;45320;-59
2021/12/20 04:33:13;;;;;;;1.85;1.40;;;20.20;23.80;20.60;94362.00;;;;10311214;28;45351;-59
2021/12/20 04:38:14;;;;;;;1.85;1.33;;;20.20;23.90;20.60;94362.00;;;;10310585;28;45395;-59
2021/12/20 04:43:15;;;;;;;2.00;1.55;;;20.20;23.90;20.60;94355.00;;;;10310890;28;46601;-59
2021/12/20 04:48:16;;;;;;;1.95;1.40;;;20.20;23.90;20.60;94355.00;;;;10311732;28;45400;-59
2021/12/20 04:53:17;;;;;;;1.85;1.40;;;20.20;23.90;20.60;94370.00;;;;10316879;28;47398;-59
2021/12/20 04:58:17;;;;;;;2.25;1.50;;;20.10;23.80;20.60;94382.00;;;;10317216;28;45403;-59
2021/12/20 05:03:18;;;;;;;1.50;1.20;;;20.10;23.90;20.60;94359.00;;;;10317562;28;45510;-59
2021/12/20 05:08:19;;;;;;;1.63;1.30;;;20.10;23.90;20.60;94379.00;;;;10317934;28;45633;-61
2021/12/20 05:13:20;;;;;;;1.75;1.30;;;20.10;23.90;20.60;94363.00;;;;10297827;28;45250;-59
2021/12/20 05:18:21;;;;;;;1.40;1.20;;;20.10;23.90;20.70;94388.00;;;;10275408;28;46416;-60
2021/12/20 05:23:21;;;;;;;1.45;1.30;;;20.20;24.00;20.70;94380.00;;;;10279549;28;46488;-59
2021/12/20 05:28:23;;;;;;;1.95;1.20;;;20.20;24.00;20.70;94390.00;;;;10316801;28;45308;-60
2021/12/20 05:33:24;;;;;;;1.33;1.20;;;20.20;24.00;20.70;94384.00;;;;10316383;28;45703;-59
2021/12/20 05:38:25;;;;;;;1.90;1.20;;;20.20;24.00;20.70;94396.00;;;;10316996;28;45345;-59
2021/12/20 05:43:25;;;;;;;2.25;1.33;;;20.30;24.00;20.70;94380.00;;;;10315733;28;45099;-60
2021/12/20 05:48:26;;;;;;;1.73;1.23;;;20.30;24.10;20.80;94395.00;;;;10316770;28;45476;-59
2021/12/20 05:53:27;;;;;;;1.20;1.10;;;20.30;24.00;20.80;94396.00;;;;10316526;28;45149;-62
2021/12/20 05:58:27;;;;;;;1.67;1.20;;;20.30;24.00;20.80;94389.00;;;;10315387;28;46249;-62
2021/12/20 06:03:28;;;;;;;1.60;1.13;;;20.30;24.00;20.80;94411.00;;;;10313649;28;45273;-62
2021/12/20 06:08:29;;;;;;;1.35;1.10;;;20.40;24.00;20.80;94407.00;;;;10315918;28;45237;-59
2021/12/20 06:13:29;;;;;;;2.13;1.17;;;20.40;24.00;20.80;94405.00;;;;10314889;28;45195;-61
2021/12/20 06:18:30;;;;;;;1.17;0.85;;;20.40;23.90;20.80;94412.00;;;;10315192;28;45568;-58
2021/12/20 06:23:31;;;;;;;1.20;1.10;;;20.30;23.90;20.80;94416.00;;;;10316053;28;45202;-62
2021/12/20 06:28:31;;;;;;;1.35;1.13;;;20.30;23.90;20.80;94403.00;;;;10297199;28;47019;-60
2021/12/20 06:33:32;;;;;;;2.03;1.38;;;20.30;23.90;20.80;94418.00;;;;10315900;28;46692;-58
2021/12/20 06:38:34;;;;;;;1.70;1.30;;;20.30;23.90;20.80;94419.00;;;;10315231;28;45349;-59
2021/12/20 06:43:35;;;;;;;1.90;1.33;;;20.40;23.90;20.80;94417.00;;;;10314082;28;45435;-60
2021/12/20 06:48:36;;;;;;;1.83;1.30;;;20.40;23.90;20.80;94418.00;;;;10312423;28;46768;-61
2021/12/20 06:53:37;;;;;;;1.48;1.17;;;20.40;24.00;20.80;94417.00;;;;10310776;28;45525;-59
2021/12/20 06:58:38;;;;;;;2.35;1.10;;;20.40;24.00;20.90;94425.00;;;;10312370;28;45512;-59
2021/12/20 07:03:38;;;;;;;1.70;1.40;;;20.40;24.00;20.90;94416.00;;;;10314861;28;45463;-62
2021/12/20 07:08:39;;;;;;;1.58;1.10;;;20.40;23.90;20.90;94435.00;;;;10314491;28;46573;-59
2021/12/20 07:13:41;;;;;;;1.95;1.10;;;20.40;24.20;20.90;94421.00;;;;10311291;28;46288;-60
2021/12/20 07:18:41;;;;;;;1.83;1.15;;;20.40;24.20;20.90;94439.00;;;;10291867;28;46973;-62
2021/12/20 07:23:42;;;;;;;1.17;0.88;;;20.40;24.20;20.90;94414.00;;;;10304882;28;47066;-62
2021/12/20 07:28:44;;;;;;;2.03;1.08;;;20.40;24.10;20.90;94414.00;;;;10270895;28;47019;-62
2021/12/20 07:33:45;;;;;;;1.95;0.93;;;20.50;24.20;20.90;94416.00;;;;10271191;28;45423;-62
2021/12/20 07:38:46;;;;;;;1.15;0.90;;;20.50;24.20;20.90;94405.00;;;;10270746;28;46982;-61
2021/12/20 07:43:48;;;;;;;0.80;0.80;;;20.50;24.10;20.90;94420.00;;;;10271010;28;47130;-61
2021/12/20 07:48:50;;;;;;;1.63;1.00;;;20.50;24.10;21.00;94439.00;;;;10269972;28;45441;-61
2021/12/20 07:53:51;;;;;;;1.40;1.02;;;20.50;24.20;21.00;94419.00;;;;10270167;28;47118;-61
2021/12/20 07:58:51;;;;;;;1.73;1.00;;;20.50;24.20;21.00;94429.00;;;;10286185;28;47311;-61
2021/12/20 08:03:52;;;;;;;1.98;0.95;;;20.50;24.30;21.00;94423.00;;;;10271704;28;45472;-61
2021/12/20 08:08:54;;;;;;;1.60;0.85;;;20.50;24.30;21.00;94399.00;;;;10286165;28;46947;-61
2021/12/20 08:13:55;;;;;;;1.10;0.80;;;20.50;24.30;21.00;94416.00;;;;10293766;28;46808;-61
2021/12/20 08:18:56;;;;;;;1.35;0.85;;;20.50;24.30;21.00;94423.00;;;;10310105;28;45544;-61
2021/12/20 08:23:56;;;;;;;2.00;1.10;;;20.50;23.70;20.90;94405.00;;;;10303664;28;47868;-62
2021/12/20 08:28:57;;;;;;;2.08;1.10;;;20.50;23.40;20.90;94422.00;;;;10276146;28;45316;-62
2021/12/20 08:33:58;;;;;;;2.28;1.30;;;20.50;23.70;21.00;94424.00;;;;10276262;28;45656;-62
2021/12/20 08:38:59;;;;;;;0.90;0.80;;;20.50;23.90;21.00;94425.00;;;;10276031;28;46772;-60
2021/12/20 08:43:59;;;;;;;2.00;1.10;;;20.50;23.90;20.90;94423.00;;;;10292461;28;47519;-61
2021/12/20 08:49:00;;;;;;;1.92;1.00;;;20.50;23.90;21.00;94429.00;;;;10317590;28;48386;-61
2021/12/20 08:54:01;;;;;;;1.95;0.90;;;20.50;23.90;21.00;94411.00;;;;10333097;28;45648;-61
2021/12/20 08:59:02;;;;;;;1.73;1.00;;;20.50;23.90;21.00;94439.00;;;;10315794;28;46502;-62
2021/12/20 09:04:06;;;;;;;1.67;1.20;;;20.50;23.90;20.90;94434.00;;;;10317069;28;45634;-62
2021/12/20 09:09:10;;;;;;;3.05;1.08;;;20.50;23.80;20.90;94441.00;;;;10331743;28;46844;-61
2021/12/20 09:14:13;;;;;;;1.27;0.90;;;20.50;23.80;20.90;94446.00;;;;10331787;28;45210;-61
2021/12/20 09:19:14;;;;;;;1.40;1.00;;;20.50;23.80;20.90;94440.00;;;;10299118;28;45423;-62
2021/12/20 09:24:14;;;;;;;1.23;0.90;;;20.50;23.80;20.90;94429.00;;;;10300827;28;45422;-60
2021/12/20 09:29:15;;;;;;;1.90;1.10;;;20.50;23.70;20.90;94436.00;;;;10297930;28;46786;-62
2021/12/20 09:34:16;;;;;;;1.33;0.80;;;20.50;23.60;20.90;94436.00;;;;10299041;28;47439;-61
2021/12/20 09:39:18;;;;;;;1.33;0.93;;;20.50;23.60;20.90;94433.00;;;;10314053;28;45147;-61
2021/12/20 09:44:22;;;;;;;1.55;1.10;;;20.40;23.70;20.90;94441.00;;;;10313118;28;45325;-62
2021/12/20 09:49:22;;;;;;;1.00;0.88;;;20.40;23.70;20.90;94436.00;;;;10274616;28;46665;-61
2021/12/20 09:54:25;;;;;;;1.70;0.90;;;20.50;23.80;21.00;94442.00;;;;10275632;28;46586;-61
2021/12/20 09:59:28;;;;;;;1.67;0.90;;;20.50;23.70;21.00;94419.00;;;;10289947;28;45390;-62
2021/12/20 10:04:29;;;;;;;1.00;0.70;;;20.50;23.90;21.00;94425.00;;;;10290154;28;45244;-61
2021/12/20 10:09:33;;;;;;;2.35;0.90;;;20.50;23.90;20.90;94417.00;;;;10289929;28;45348;-62
2021/12/20 10:14:55;;;;;;;1.55;0.70;;;20.50;23.70;21.00;94404.00;;;;10317509;28;45233;-61
2021/12/20 10:20:14;;;;;;;1.42;0.63;;;20.50;23.80;21.00;94406.00;;;;10305312;28;47578;-62
2021/12/20 10:25:27;;;;;;;0.73;0.50;;;20.50;24.00;21.10;94419.00;;;;10314531;28;45338;-61
2021/12/20 10:30:34;;;;;;;0.85;0.70;;;20.60;24.20;21.10;94415.00;;;;10277094;28;45265;-62
2021/12/20 10:35:42;;;;;;;2.72;0.90;;;20.60;24.30;21.10;94410.00;;;;10295155;28;45231;-60
2021/12/20 10:41:04;;;;;;;6.80;3.17;;;20.60;24.50;21.10;94405.00;;;;10312406;28;45189;-59
2021/12/20 10:46:17;;;;;;;8.77;4.40;;;20.60;24.30;21.10;94418.00;;;;10311838;28;45483;-60
2021/12/20 10:51:31;;;;;;;7.93;4.07;;;20.60;24.30;21.10;94411.00;;;;10308934;28;45214;-58
2021/12/20 10:56:36;;;;;;;6.25;3.20;;;20.60;24.30;21.20;94408.00;;;;10327117;28;45530;-61
2021/12/20 11:12:22;;;;;;;3.97;2.17;;;20.70;24.30;21.20;94393.00;;;;10311557;28;45223;-60
2021/12/20 11:17:23;;;;;;;4.05;1.98;;;20.70;24.30;21.20;94375.00;;;;10311635;28;46741;-60
2021/12/20 11:22:27;;;;;;;2.80;1.40;;;20.70;24.30;21.20;94384.00;;;;10295758;28;46882;-61
2021/12/20 11:27:51;;;;;;;2.85;1.50;;;20.70;24.30;21.20;94390.00;;;;10275069;28;47973;-60
2021/12/20 11:32:52;;;;;;;2.97;1.50;;;20.70;24.30;21.20;94387.00;;;;10270146;28;45493;-59
2021/12/20 11:37:52;;;;;;;2.72;1.30;;;20.70;24.20;21.20;94362.00;;;;10271688;28;45619;-61
2021/12/20 11:42:54;;;;;;;2.25;1.20;;;20.70;24.20;21.20;94367.00;;;;10269341;28;45550;-60
2021/12/20 11:48:13;;;;;;;2.15;1.13;;;20.70;24.20;21.20;94363.00;;;;10269709;28;47224;-61
2021/12/20 11:53:16;;;;;;;2.17;1.08;;;20.70;24.20;21.20;94362.00;;;;10270338;28;46374;-61
2021/12/20 11:58:18;;;;;;;2.65;1.30;;;20.70;24.20;21.20;94346.00;;;;10253311;28;46760;-61
2021/12/20 12:03:36;;;;;;;1.85;0.90;;;20.70;24.30;21.20;94347.00;;;;10277328;28;46952;-61
2021/12/20 12:08:40;;;;;;;1.85;0.90;;;20.70;24.30;21.20;94355.00;;;;10276889;28;45250;-60
2021/12/20 12:13:47;;;;;;;1.60;0.90;;;20.70;24.30;21.20;94354.00;;;;10299875;28;46468;-61
2021/12/20 12:18:51;;;;;;;1.27;0.90;;;20.70;24.20;21.20;94337.00;;;;10317187;28;45234;-61
2021/12/20 12:23:51;;;;;;;1.77;0.90;;;20.70;24.20;21.20;94322.00;;;;10294424;28;47188;-60
2021/12/20 12:28:55;;;;;;;2.15;0.90;;;20.70;24.20;21.10;94343.00;;;;10275788;28;46966;-60
2021/12/20 12:34:10;;;;;;;1.67;0.77;;;20.70;24.20;21.20;94333.00;;;;10275506;28;47258;-60
2021/12/20 12:39:26;;;;;;;1.52;0.75;;;20.60;24.10;21.20;94332.00;;;;10275845;28;46244;-60
2021/12/20 12:44:31;;;;;;;2.42;1.00;;;20.70;24.70;21.10;94318.00;;;;10275859;28;46343;-61
2021/12/20 12:49:36;;;;;;;2.10;0.90;;;20.60;24.00;21.10;94328.00;;;;10275097;28;45307;-60
2021/12/20 12:54:55;;;;;;;2.45;0.82;;;20.60;24.80;21.10;94322.00;;;;10276029;28;45187;-61
2021/12/20 12:59:58;;;;;;;1.38;0.70;;;20.60;24.20;21.10;94324.00;;;;10275230;28;46628;-61
2021/12/20 13:05:15;;;;;;;1.08;0.60;;;20.60;24.20;21.10;94324.00;;;;10276058;28;45961;-60
2021/12/20 13:10:19;;;;;;;1.48;0.70;;;20.60;24.20;21.10;94320.00;;;;10274312;28;45535;-61
2021/12/20 13:20:36;;;;;;;2.40;1.00;;;20.60;24.30;21.20;94313.00;;;;10315053;28;45301;-60
2021/12/20 13:25:47;;;;;;;1.63;0.90;;;20.60;24.30;21.10;94328.00;;;;10298830;28;47054;-60
2021/12/20 13:31:07;;;;;;;1.88;0.80;;;20.60;24.40;21.10;94316.00;;;;10316594;28;46375;-60
2021/12/20 13:36:34;;;;;;;2.33;1.00;;;20.60;24.40;21.10;94320.00;;;;10314179;28;45199;-61
2021/12/20 13:41:38;;;;;;;1.27;0.70;;;20.60;24.40;21.20;94312.00;;;;10298175;28;47139;-61
2021/12/20 13:46:44;;;;;;;2.78;1.00;;;20.70;24.50;21.20;94328.00;;;;10313712;28;46474;-60
2021/12/20 13:52:04;;;;;;;1.65;0.90;;;20.70;24.50;21.20;94327.00;;;;10314798;28;45176;-61
2021/12/20 13:57:23;;;;;;;1.98;0.80;;;20.70;24.50;21.20;94325.00;;;;10313532;28;48106;-60
2021/12/20 14:02:41;;;;;;;1.98;0.93;;;20.70;24.60;21.20;94326.00;;;;10313769;28;46804;-60
2021/12/20 14:07:49;;;;;;;2.22;0.98;;;20.70;24.70;21.20;94332.00;;;;10296758;28;48111;-60
2021/12/20 14:13:04;;;;;;;1.30;0.80;;;20.70;24.70;21.20;94342.00;;;;10296424;28;46821;-60
2021/12/20 14:18:20;;;;;;;2.35;1.00;;;20.70;24.50;21.10;94333.00;;;;10348622;23;45313;-63
2021/12/20 14:23:33;;;;;;;2.07;0.80;;;20.70;24.50;21.10;94318.00;;;;10310904;28;46074;-63
2021/12/20 14:28:39;;;;;;;3.17;1.00;;;20.60;24.50;21.10;94324.00;;;;10295618;28;45221;-63
2021/12/20 14:33:49;;;;;;;1.40;0.70;;;20.70;24.60;21.20;94322.00;;;;10271874;28;46534;-63
2021/12/20 14:38:57;;;;;;;2.15;0.90;;;20.70;24.60;21.10;94331.00;;;;10304797;28;45377;-62
2021/12/20 14:44:37;;;;;;;2.50;0.70;;;20.70;24.60;21.10;94327.00;;;;10296842;28;46850;-63
2021/12/20 14:49:54;;;;;;;1.48;0.70;;;20.60;24.60;21.10;94326.00;;;;10312100;28;46008;-63
2021/12/20 14:54:57;;;;;;;1.73;0.75;;;20.60;24.60;21.10;94337.00;;;;10288095;28;45200;-63
2021/12/20 14:59:59;;;;;;;2.30;0.95;;;20.70;24.60;21.10;94337.00;;;;10270556;28;46456;-63
2021/12/20 15:05:01;;;;;;;1.10;0.65;;;20.60;24.50;21.10;94331.00;;;;10271618;28;45251;-63
2021/12/20 15:10:04;;;;;;;2.70;0.98;;;20.60;24.50;21.20;94346.00;;;;10271696;28;45426;-63
2021/12/20 15:15:06;;;;;;;1.85;0.90;;;20.70;24.60;21.20;94344.00;;;;10288217;28;47971;-62
2021/12/20 15:20:08;;;;;;;1.80;0.98;;;20.60;24.50;21.10;94336.00;;;;10311822;28;46543;-62
2021/12/20 15:25:09;;;;;;;1.17;0.90;;;20.70;24.50;21.20;94324.00;;;;10310899;28;45300;-63
2021/12/20 15:30:10;;;;;;;1.80;0.98;;;20.70;24.50;21.20;94332.00;;;;10310940;28;45490;-63
2021/12/20 15:35:11;;;;;;;2.42;1.30;;;20.60;24.50;21.10;94346.00;;;;10294433;28;47102;-63
2021/12/20 15:40:13;;;;;;;3.83;2.17;;;20.60;23.40;21.00;94337.00;;;;10310914;28;45314;-64
2021/12/20 15:45:14;;;;;;;2.47;1.60;;;20.60;23.10;21.00;94329.00;;;;10294411;28;48376;-63
2021/12/20 15:50:15;;;;;;;3.13;1.70;;;20.60;23.60;21.00;94335.00;;;;10294476;28;47034;-63
2021/12/20 15:55:16;;;;;;;3.20;1.50;;;20.60;23.80;21.00;94320.00;;;;10311302;28;46672;-63
2021/12/20 16:00:17;;;;;;;2.80;1.20;;;20.50;23.70;21.10;94333.00;;;;10310290;28;45577;-64
2021/12/20 16:05:17;;;;;;;2.83;1.50;;;20.60;23.80;21.00;94329.00;;;;10311700;28;46623;-64
2021/12/20 16:10:18;;;;;;;2.53;1.30;;;20.60;23.80;21.00;94327.00;;;;10311322;28;45282;-63
2021/12/20 16:15:22;;;;;;;2.70;1.38;;;20.50;23.60;21.00;94335.00;;;;10275363;28;45417;-64
2021/12/20 16:20:24;;;;;;;2.30;1.20;;;20.60;23.80;21.00;94335.00;;;;10269205;28;45722;-62
2021/12/20 16:25:25;;;;;;;1.73;1.17;;;20.50;23.70;21.00;94333.00;;;;10269545;28;46304;-67
2021/12/20 16:30:26;;;;;;;1.70;1.15;;;20.60;23.70;21.00;94335.00;;;;10306402;28;46646;-63
2021/12/20 16:35:28;;;;;;;2.65;1.20;;;20.60;23.80;21.00;94320.00;;;;10311775;28;45376;-63
2021/12/20 16:40:29;;;;;;;2.67;1.27;;;20.50;23.70;21.00;94328.00;;;;10310786;28;45248;-62
2021/12/20 16:50:48;;;;;;;2.15;1.05;;;20.50;23.70;21.00;94335.00;;;;10319171;28;45367;-62
2021/12/20 16:55:52;;;;;;;1.70;1.00;;;20.60;23.70;21.00;94316.00;;;;10317625;28;45541;-64
2021/12/20 17:00:54;;;;;;;2.17;1.20;;;20.50;23.70;21.00;94328.00;;;;10317326;28;45234;-64
2021/12/20 17:06:09;;;;;;;2.03;1.10;;;20.50;23.60;21.00;94321.00;;;;10316978;28;45364;-64
2021/12/20 17:11:10;;;;;;;1.98;1.08;;;20.50;23.60;21.00;94323.00;;;;10333284;28;48290;-63
2021/12/20 17:16:12;;;;;;;1.30;0.90;;;20.50;23.50;21.00;94327.00;;;;10316938;28;45292;-63
2021/12/20 17:21:14;;;;;;;1.75;1.00;;;20.50;23.50;21.00;94323.00;;;;10300468;28;46325;-63
2021/12/20 17:26:17;;;;;;;1.38;0.70;;;20.50;23.40;21.00;94327.00;;;;10317407;28;45459;-63
2021/12/20 17:31:18;;;;;;;1.20;1.00;;;20.50;23.50;21.00;94308.00;;;;10299004;28;47076;-63
2021/12/20 17:36:19;;;;;;;1.80;0.90;;;20.50;23.50;21.00;94320.00;;;;10313052;28;46183;-63
2021/12/20 17:41:19;;;;;;;2.53;0.85;;;20.50;23.50;21.00;94292.00;;;;10309700;28;46246;-63
2021/12/20 17:46:20;;;;;;;2.00;0.88;;;20.50;23.40;21.00;94327.00;;;;10325770;28;47044;-63
2021/12/20 17:51:21;;;;;;;1.92;1.00;;;20.60;23.50;21.00;94335.00;;;;10314915;28;45233;-62
2021/12/20 17:56:23;;;;;;;1.45;1.10;;;20.50;23.50;21.00;94300.00;;;;10297928;28;48041;-63
2021/12/20 18:01:24;;;;;;;1.88;1.30;;;20.50;23.50;21.00;94315.00;;;;10312476;28;46577;-63
2021/12/20 18:06:25;;;;;;;1.88;1.30;;;20.50;23.50;21.00;94320.00;;;;10324934;28;48151;-63
2021/12/20 18:11:26;;;;;;;2.42;1.25;;;20.60;23.50;21.00;94316.00;;;;10293864;28;47442;-63
2021/12/20 18:16:27;;;;;;;2.70;1.33;;;20.50;23.40;21.00;94318.00;;;;10274621;28;45122;-63
2021/12/20 18:21:29;;;;;;;2.58;1.40;;;20.60;23.50;21.00;94317.00;;;;10256236;28;47621;-63
2021/12/20 18:26:30;;;;;;;2.35;1.30;;;20.60;23.50;21.00;94312.00;;;;10284383;28;45244;-63
2021/12/20 18:31:31;;;;;;;3.10;1.25;;;20.50;23.40;21.00;94331.00;;;;10273378;28;45170;-63
2021/12/20 18:36:32;;;;;;;1.95;1.15;;;20.60;23.40;21.00;94326.00;;;;10297229;28;45227;-63
2021/12/20 18:41:37;;;;;;;1.70;1.02;;;20.60;23.40;21.00;94318.00;;;;10313025;28;45593;-63
2021/12/20 18:46:39;;;;;;;2.05;1.20;;;20.50;23.30;21.00;94319.00;;;;10312465;28;45334;-63
2021/12/20 18:51:39;;;;;;;1.85;1.02;;;20.50;23.30;21.00;94317.00;;;;10311490;28;46508;-63
2021/12/20 18:56:40;;;;;;;1.65;0.93;;;20.60;23.30;21.00;94323.00;;;;10312214;28;47438;-63
2021/12/20 19:01:41;;;;;;;1.80;1.00;;;20.60;23.20;21.00;94311.00;;;;10312537;28;45569;-63
2021/12/20 19:06:42;;;;;;;1.77;1.00;;;20.60;23.20;21.00;94298.00;;;;10327621;28;48368;-63
2021/12/20 19:11:52;;;;;;;2.10;0.90;;;20.50;23.10;21.00;94301.00;;;;10306819;28;45413;-63
2021/12/20 19:16:52;;;;;;;2.67;1.05;;;20.50;23.00;21.00;94304.00;;;;10272122;28;47291;-63
2021/12/20 19:21:58;;;;;;;1.67;1.00;;;20.60;23.10;21.00;94304.00;;;;10272457;28;45301;-63
2021/12/20 19:26:59;;;;;;;1.47;1.00;;;20.60;23.00;21.00;94297.00;;;;10279688;28;45592;-63
2021/12/20 19:32:01;;;;;;;1.42;0.95;;;20.50;23.00;21.00;94298.00;;;;10312844;28;45314;-63
2021/12/20 19:37:05;;;;;;;1.23;0.90;;;20.50;22.90;21.00;94308.00;;;;10327839;28;48104;-62
2021/12/20 19:42:08;;;;;;;1.60;0.88;;;20.50;22.90;21.00;94301.00;;;;10294999;28;46763;-63
2021/12/20 19:47:11;;;;;;;2.50;1.10;;;20.50;22.80;21.00;94283.00;;;;10310998;28;46965;-63
2021/12/20 19:52:12;;;;;;;3.05;1.10;;;20.50;22.80;21.00;94297.00;;;;10311085;28;45316;-63
2021/12/20 19:57:13;;;;;;;2.03;0.90;;;20.50;22.80;20.90;94287.00;;;;10326951;28;47016;-63
2021/12/20 20:02:14;;;;;;;2.05;1.00;;;20.50;22.80;20.90;94291.00;;;;10310571;28;48119;-63
2021/12/20 20:07:15;;;;;;;1.95;0.90;;;20.50;22.70;20.90;94283.00;;;;10310177;28;45556;-63
2021/12/20 20:12:16;;;;;;;2.00;1.00;;;20.50;22.80;21.00;94297.00;;;;10284088;28;47014;-63
2021/12/20 20:17:17;;;;;;;2.55;1.10;;;20.50;22.80;21.00;94305.00;;;;10270042;28;46510;-63
2021/12/20 20:22:23;;;;;;;1.33;0.95;;;20.50;22.80;21.00;94285.00;;;;10323006;23;45493;-61
2021/12/20 20:27:25;;;;;;;1.50;1.00;;;20.50;22.80;21.00;94297.00;;;;10302521;28;47149;-61
2021/12/20 20:32:26;;;;;;;1.27;0.82;;;20.50;22.80;21.00;94285.00;;;;10318247;28;45199;-61
2021/12/20 20:37:27;;;;;;;1.65;0.90;;;20.50;22.80;21.00;94293.00;;;;10317762;28;48231;-61
2021/12/20 20:42:28;;;;;;;2.38;1.00;;;20.50;22.80;21.00;94306.00;;;;10318034;28;45951;-61
2021/12/20 20:47:29;;;;;;;2.45;0.98;;;20.50;22.70;21.00;94284.00;;;;10316943;28;46556;-62
2021/12/20 20:52:30;;;;;;;0.95;0.60;;;20.50;22.70;21.00;94286.00;;;;10317420;28;46040;-61
2021/12/20 20:57:32;;;;;;;0.98;0.82;;;20.50;22.70;21.00;94304.00;;;;10317453;28;46139;-61
2021/12/20 21:02:32;;;;;;;1.63;0.70;;;20.50;22.70;21.00;94284.00;;;;10318307;28;45558;-61
2021/12/20 21:07:33;;;;;;;2.10;0.93;;;20.50;22.70;21.00;94288.00;;;;10316247;28;46417;-62
2021/12/20 21:12:34;;;;;;;1.30;0.88;;;20.50;22.80;21.00;94289.00;;;;10316973;28;45637;-62
2021/12/20 21:17:35;;;;;;;2.28;1.00;;;20.50;22.70;21.00;94290.00;;;;10318277;28;45350;-61
2021/12/20 21:22:37;;;;;;;2.42;1.17;;;20.50;22.60;20.90;94297.00;;;;10316662;28;45233;-61
2021/12/20 21:27:38;;;;;;;1.77;1.00;;;20.50;22.60;20.90;94282.00;;;;10300233;28;46720;-61
2021/12/20 21:32:39;;;;;;;2.30;0.90;;;20.40;22.60;20.90;94287.00;;;;10315355;28;45382;-61
2021/12/20 21:37:39;;;;;;;2.13;0.90;;;20.50;22.50;20.90;94288.00;;;;10317651;28;46050;-61
2021/12/20 21:42:40;;;;;;;2.20;1.08;;;20.40;22.50;20.80;94275.00;;;;10317228;28;45163;-62
2021/12/20 21:47:41;;;;;;;2.13;0.88;;;20.40;22.40;20.80;94259.00;;;;10315339;28;45206;-62
2021/12/20 21:52:42;;;;;;;2.40;1.10;;;20.40;22.50;20.80;94268.00;;;;10316882;28;45545;-61
2021/12/20 21:57:42;;;;;;;2.33;0.80;;;20.40;22.40;20.80;94256.00;;;;10316751;28;45232;-62
2021/12/20 22:02:43;;;;;;;1.33;0.90;;;20.30;22.40;20.80;94260.00;;;;10316916;28;46272;-62
2021/12/20 22:07:45;;;;;;;1.40;0.82;;;20.30;22.40;20.70;94274.00;;;;10314904;28;45106;-61
2021/12/20 22:12:46;;;;;;;1.95;1.02;;;20.30;22.40;20.70;94269.00;;;;10314520;28;45217;-61
2021/12/20 22:17:47;;;;;;;2.05;0.82;;;20.30;22.40;20.70;94266.00;;;;10309961;28;46320;-61
2021/12/20 22:22:47;;;;;;;2.35;1.10;;;20.20;22.30;20.70;94267.00;;;;10312217;28;46137;-62
2021/12/20 22:27:48;;;;;;;1.55;0.80;;;20.20;22.40;20.70;94275.00;;;;10315902;28;45162;-60
2021/12/20 22:32:49;;;;;;;2.03;1.10;;;20.20;22.40;20.70;94269.00;;;;10314619;28;45274;-61
2021/12/20 22:37:49;;;;;;;2.60;1.33;;;20.20;22.30;20.70;94264.00;;;;10315541;28;45347;-61
2021/12/20 22:42:50;;;;;;;2.45;1.10;;;20.20;22.30;20.70;94258.00;;;;10313516;28;45232;-62